createdAt,value
2024-01-11T00:01:10.336Z,7.77
2024-01-11T00:03:37.790Z,7.75
2024-01-11T00:06:05.796Z,7.68
2024-01-11T00:08:33.447Z,7.59
2024-01-11T00:11:01.107Z,7.55
2024-01-11T00:13:28.537Z,7.56
2024-01-11T00:15:55.984Z,7.60
2024-01-11T00:18:23.593Z,7.67
2024-01-11T00:20:51.051Z,7.68
2024-01-11T00:23:18.585Z,7.67
2024-01-11T00:25:46.145Z,7.65
2024-01-11T00:28:13.614Z,7.62
2024-01-11T00:30:41.015Z,7.59
2024-01-11T00:33:08.629Z,7.54
2024-01-11T00:35:36.162Z,7.51
2024-01-11T00:38:03.921Z,7.50
2024-01-11T00:40:31.386Z,7.49
2024-01-11T00:42:58.865Z,7.47
2024-01-11T00:45:26.258Z,7.48
2024-01-11T00:47:53.887Z,7.51
2024-01-11T00:50:21.368Z,7.51
2024-01-11T00:52:48.736Z,7.46
2024-01-11T00:55:17.442Z,7.45
2024-01-11T00:57:44.848Z,7.47
2024-01-11T01:00:15.216Z,7.48
2024-01-11T01:02:42.941Z,7.45
2024-01-11T01:05:10.447Z,7.50
2024-01-11T01:07:37.847Z,7.60
2024-01-11T01:10:05.601Z,7.69
2024-01-11T01:12:32.999Z,7.73
2024-01-11T01:15:00.515Z,7.73
2024-01-11T01:17:27.992Z,7.74
2024-01-11T01:19:55.540Z,7.73
2024-01-11T01:22:22.984Z,7.70
2024-01-11T01:24:50.535Z,7.70
2024-01-11T01:27:18.070Z,7.67
2024-01-11T01:29:45.939Z,7.63
2024-01-11T01:32:13.506Z,7.58
2024-01-11T01:34:40.942Z,7.58
2024-01-11T01:37:08.334Z,7.64
2024-01-11T01:39:38.941Z,7.71
2024-01-11T01:42:07.785Z,7.74
2024-01-11T01:44:35.346Z,7.75
2024-01-11T01:47:04.130Z,7.78
2024-01-11T01:49:31.784Z,7.81
2024-01-11T01:51:59.270Z,7.83
2024-01-11T01:54:26.718Z,7.80
2024-01-11T01:56:54.339Z,7.77
2024-01-11T01:59:21.915Z,7.76
2024-01-11T02:01:49.535Z,7.75
2024-01-11T02:04:17.105Z,7.75
2024-01-11T02:06:46.256Z,7.77
2024-01-11T02:09:14.661Z,7.82
2024-01-11T02:11:45.969Z,7.88
2024-01-11T02:14:13.423Z,7.94
2024-01-11T02:16:40.886Z,7.96
2024-01-11T02:19:08.712Z,7.93
2024-01-11T02:21:36.216Z,7.88
2024-01-11T02:24:07.593Z,7.84
2024-01-11T02:26:35.333Z,7.83
2024-01-11T02:29:03.281Z,7.84
2024-01-11T02:31:30.864Z,7.86
2024-01-11T02:33:58.512Z,7.85
2024-01-11T02:36:26.412Z,7.86
2024-01-11T02:38:53.935Z,7.91
2024-01-11T02:41:21.423Z,7.94
2024-01-11T02:43:49.628Z,7.92
2024-01-11T02:46:18.036Z,7.87
2024-01-11T02:48:45.869Z,7.87
2024-01-11T02:51:14.112Z,7.84
2024-01-11T02:53:41.666Z,7.81
2024-01-11T02:56:09.211Z,7.76
2024-01-11T02:58:36.699Z,7.73
2024-01-11T03:01:04.759Z,7.68
2024-01-11T03:03:32.329Z,7.62
2024-01-11T03:05:59.945Z,7.64
2024-01-11T03:08:27.688Z,7.70
2024-01-11T03:10:55.198Z,7.74
2024-01-11T03:13:22.749Z,7.77
2024-01-11T03:15:51.284Z,7.75
2024-01-11T03:18:19.562Z,7.72
2024-01-11T03:20:47.353Z,7.71
2024-01-11T03:23:16.467Z,7.70
2024-01-11T03:25:45.287Z,7.73
2024-01-11T03:28:13.415Z,7.78
2024-01-11T03:30:41.039Z,7.82
2024-01-11T03:33:09.529Z,7.85
2024-01-11T03:35:39.931Z,7.92
2024-01-11T03:38:07.848Z,8.01
2024-01-11T03:40:35.452Z,8.08
2024-01-11T03:43:04.288Z,8.13
2024-01-11T03:45:31.823Z,8.17
2024-01-11T03:47:59.406Z,8.18
2024-01-11T03:50:26.980Z,8.26
2024-01-11T03:52:55.608Z,8.22
2024-01-11T03:55:23.634Z,8.20
2024-01-11T03:57:52.414Z,8.20
2024-01-11T04:00:20.302Z,8.22
2024-01-11T04:02:47.956Z,8.19
2024-01-11T04:05:16.878Z,8.12
2024-01-11T04:07:44.536Z,8.09
2024-01-11T04:10:12.333Z,8.08
2024-01-11T04:12:40.458Z,8.11
2024-01-11T04:15:09.707Z,8.14
2024-01-11T04:17:39.477Z,8.20
2024-01-11T04:20:09.730Z,8.20
2024-01-11T04:22:41.346Z,8.18
2024-01-11T04:25:12.373Z,8.15
2024-01-11T04:27:42.756Z,8.13
2024-01-11T04:30:13.420Z,8.13
2024-01-11T04:32:44.401Z,8.13
2024-01-11T04:35:14.099Z,8.12
2024-01-11T04:37:44.376Z,8.13
2024-01-11T04:40:15.406Z,8.13
2024-01-11T04:42:45.083Z,8.13
2024-01-11T04:45:15.393Z,8.18
2024-01-11T04:47:45.976Z,8.22
2024-01-11T04:50:15.791Z,8.23
2024-01-11T04:52:47.442Z,8.25
2024-01-11T04:55:18.433Z,8.26
2024-01-11T04:57:48.956Z,8.26
2024-01-11T05:00:18.852Z,8.24
2024-01-11T05:02:48.593Z,8.20
2024-01-11T05:05:18.738Z,8.15
2024-01-11T05:07:49.430Z,8.04
2024-01-11T05:10:20.468Z,8.01
2024-01-11T05:12:50.808Z,8.03
2024-01-11T05:15:21.506Z,8.04
2024-01-11T05:24:55.240Z,8.01
2024-01-11T05:27:42.505Z,7.87
2024-01-11T05:30:11.201Z,7.73
2024-01-11T05:33:17.433Z,7.74
2024-01-11T05:35:44.255Z,7.76
2024-01-11T05:38:10.947Z,7.83
2024-01-11T05:40:38.720Z,7.92
2024-01-11T05:43:05.529Z,7.96
2024-01-11T05:45:45.863Z,7.95
2024-01-11T05:48:16.309Z,7.91
2024-01-11T05:50:44.119Z,7.85
2024-01-11T05:53:14.050Z,7.77
2024-01-11T05:55:41.054Z,7.70
2024-01-11T05:58:07.717Z,7.68
2024-01-11T06:00:34.740Z,7.68
2024-01-11T06:03:02.316Z,7.70
2024-01-11T06:05:29.267Z,7.72
2024-01-11T06:07:56.261Z,7.76
2024-01-11T06:10:23.343Z,7.84
2024-01-11T06:12:50.203Z,7.84
2024-01-11T06:15:17.564Z,7.87
2024-01-11T06:17:44.537Z,7.89
2024-01-11T06:20:12.285Z,7.88
2024-01-11T06:22:39.830Z,7.80
2024-01-11T06:25:08.005Z,7.76
2024-01-11T06:27:34.940Z,7.76
2024-01-11T06:30:01.892Z,7.71
2024-01-11T06:32:29.153Z,7.68
2024-01-11T06:34:56.481Z,7.70
2024-01-11T06:37:23.800Z,7.69
2024-01-11T06:39:50.897Z,7.64
2024-01-11T06:42:19.205Z,7.61
2024-01-11T06:44:46.887Z,7.58
2024-01-11T06:47:13.732Z,7.53
2024-01-11T06:49:40.640Z,7.46
2024-01-11T06:52:07.749Z,7.46
2024-01-11T06:54:35.103Z,7.53
2024-01-11T06:57:01.962Z,7.53
2024-01-11T06:59:28.974Z,7.51
2024-01-11T07:01:55.770Z,7.56
2024-01-11T07:04:22.673Z,7.61
2024-01-11T07:06:49.821Z,7.63
2024-01-11T07:09:17.575Z,7.64
2024-01-11T07:11:44.923Z,7.66
2024-01-11T07:14:12.280Z,7.69
2024-01-11T07:16:39.590Z,7.71
2024-01-11T07:19:06.805Z,7.75
2024-01-11T07:21:33.807Z,7.84
2024-01-11T07:24:00.828Z,7.84
2024-01-11T07:26:27.890Z,7.86
2024-01-11T07:28:58.101Z,7.87
2024-01-11T07:31:24.957Z,7.83
2024-01-11T07:33:51.892Z,7.84
2024-01-11T07:36:19.275Z,7.87
2024-01-11T07:38:46.071Z,7.88
2024-01-11T07:41:13.265Z,7.92
2024-01-11T07:43:49.180Z,7.95
2024-01-11T07:46:28.987Z,7.95
2024-01-11T07:49:06.387Z,7.97
2024-01-11T07:51:35.262Z,7.97
2024-01-11T07:54:03.036Z,7.98
2024-01-11T07:56:30.253Z,8.01
2024-01-11T07:58:57.092Z,7.99
2024-01-11T08:01:23.890Z,7.95
2024-01-11T08:03:52.720Z,7.93
2024-01-11T08:06:19.680Z,8.00
2024-01-11T08:08:52.095Z,8.08
2024-01-11T08:11:19.480Z,8.08
2024-01-11T08:13:46.410Z,8.10
2024-01-11T08:16:17.385Z,8.12
2024-01-11T08:18:44.491Z,8.13
2024-01-11T08:21:11.285Z,8.09
2024-01-11T08:23:49.193Z,8.08
2024-01-11T08:26:16.568Z,8.08
2024-01-11T08:28:43.513Z,8.08
2024-01-11T08:31:10.680Z,8.07
2024-01-11T08:34:44.328Z,6.76
2024-01-11T08:37:12.193Z,7.77
2024-01-11T08:39:41.960Z,7.91
2024-01-11T08:42:10.268Z,7.86
2024-01-11T08:44:37.929Z,7.84
2024-01-11T08:47:05.459Z,7.82
2024-01-11T08:57:16.720Z,8.15
2024-01-11T08:59:44.324Z,8.14
2024-01-11T09:02:16.523Z,8.19
2024-01-11T09:04:48.840Z,8.23
2024-01-11T09:07:17.324Z,8.23
2024-01-11T09:09:51.288Z,8.19
2024-01-11T09:12:24.174Z,8.12
2024-01-11T09:14:51.698Z,8.13
2024-01-11T09:17:19.424Z,8.22
2024-01-11T09:19:47.048Z,8.22
2024-01-11T09:22:14.744Z,8.23
2024-01-11T09:32:26.941Z,8.26
2024-01-11T09:34:54.868Z,8.24
2024-01-11T09:37:22.438Z,8.26
2024-01-11T09:39:50.069Z,8.32
2024-01-11T09:42:18.389Z,8.35
2024-01-11T09:44:46.030Z,8.31
2024-01-11T09:47:16.192Z,8.34
2024-01-11T09:49:47.654Z,8.38
2024-01-11T09:52:16.523Z,8.38
2024-01-11T09:54:44.287Z,8.37
2024-01-11T09:57:12.066Z,8.39
2024-01-11T09:59:39.735Z,8.46
2024-01-11T10:02:09.880Z,8.55
2024-01-11T10:04:38.822Z,8.64
2024-01-11T10:07:09.983Z,8.70
2024-01-11T10:09:37.868Z,8.71
2024-01-11T10:12:06.515Z,8.68
2024-01-11T10:14:34.275Z,8.68
2024-01-11T10:17:02.699Z,8.67
2024-01-11T10:19:30.665Z,8.62
2024-01-11T10:21:59.957Z,8.61
2024-01-11T10:24:27.663Z,8.58
2024-01-11T10:26:59.484Z,8.63
2024-01-11T10:29:33.369Z,8.74
2024-01-11T10:32:00.971Z,8.81
2024-01-11T10:34:28.575Z,8.84
2024-01-11T10:36:55.981Z,8.92
2024-01-11T10:39:27.268Z,8.87
2024-01-11T10:42:13.188Z,8.85
2024-01-11T10:44:41.420Z,8.85
2024-01-11T10:47:09.164Z,8.84
2024-01-11T10:49:38.886Z,8.81
2024-01-11T10:52:07.352Z,8.75
2024-01-11T10:54:35.887Z,8.75
2024-01-11T10:57:06.360Z,8.82
2024-01-11T10:59:34.024Z,8.88
2024-01-11T11:02:06.008Z,8.89
2024-01-11T11:04:34.121Z,8.87
2024-01-11T11:07:02.324Z,8.84
2024-01-11T11:09:29.793Z,8.81
2024-01-11T11:11:57.643Z,8.81
2024-01-11T11:14:25.563Z,8.86
2024-01-11T11:16:53.343Z,8.90
2024-01-11T11:19:21.730Z,8.85
2024-01-11T11:21:49.436Z,8.80
2024-01-11T11:24:17.947Z,8.84
2024-01-11T11:26:45.537Z,8.93
2024-01-11T11:29:13.059Z,9.00
2024-01-11T11:31:44.653Z,9.08
2024-01-11T11:34:13.079Z,9.12
2024-01-11T11:36:44.170Z,9.13
2024-01-11T11:39:14.444Z,9.12
2024-01-11T11:41:43.913Z,9.14
2024-01-11T11:44:13.508Z,9.17
2024-01-11T11:46:40.976Z,9.16
2024-01-11T11:49:08.529Z,9.16
2024-01-11T11:51:36.021Z,9.12
2024-01-11T11:54:03.736Z,9.09
2024-01-11T11:56:31.940Z,9.07
2024-01-11T11:58:59.340Z,9.10
2024-01-11T12:01:26.876Z,9.17
2024-01-11T12:03:54.638Z,9.25
2024-01-11T12:06:24.274Z,9.31
2024-01-11T12:08:53.707Z,9.37
2024-01-11T12:11:22.197Z,9.34
2024-01-11T12:13:49.950Z,9.30
2024-01-11T12:16:17.295Z,9.33
2024-01-11T12:18:44.786Z,9.34
2024-01-11T12:21:12.513Z,9.35
2024-01-11T12:23:40.584Z,9.28
2024-01-11T12:26:12.786Z,9.23
2024-01-11T12:28:40.880Z,9.26
2024-01-11T12:31:08.449Z,9.27
2024-01-11T12:33:36.882Z,9.24
2024-01-11T12:36:06.180Z,9.19
2024-01-11T12:38:34.720Z,9.21
2024-01-11T12:41:02.164Z,9.25
2024-01-11T12:43:29.882Z,9.31
2024-01-11T12:45:57.428Z,9.25
2024-01-11T12:48:25.604Z,9.11
2024-01-11T12:51:09.920Z,8.99
2024-01-11T12:53:43.669Z,8.95
2024-01-11T12:56:14.701Z,9.01
2024-01-11T12:58:42.563Z,9.02
2024-01-11T13:01:12.011Z,8.99
2024-01-11T13:03:40.079Z,8.96
2024-01-11T13:06:10.652Z,8.98
2024-01-11T13:08:40.836Z,9.05
2024-01-11T13:11:08.746Z,9.11
2024-01-11T13:13:36.326Z,9.08
2024-01-11T13:16:12.642Z,9.02
2024-01-11T13:18:40.396Z,9.01
2024-01-11T13:21:11.253Z,9.03
2024-01-11T13:23:39.584Z,9.00
2024-01-11T13:26:07.618Z,8.94
2024-01-11T13:28:35.158Z,8.88
2024-01-11T13:31:03.785Z,8.86
2024-01-11T13:33:31.497Z,8.90
2024-01-11T13:35:59.029Z,8.94
2024-01-11T13:38:26.584Z,8.99
2024-01-11T13:40:54.274Z,9.06
2024-01-11T13:43:21.668Z,9.04
2024-01-11T13:45:49.721Z,9.05
2024-01-11T13:48:17.221Z,9.06
2024-01-11T13:50:44.725Z,9.07
2024-01-11T13:53:12.140Z,9.08
2024-01-11T13:55:40.514Z,9.03
2024-01-11T13:58:08.736Z,8.96
2024-01-11T14:00:36.333Z,8.98
2024-01-11T14:03:06.554Z,8.99
2024-01-11T14:05:34.535Z,9.00
2024-01-11T14:08:02.752Z,9.00
2024-01-11T14:10:30.257Z,8.98
2024-01-11T14:12:57.758Z,8.93
2024-01-11T14:15:26.270Z,8.85
2024-01-11T14:17:54.287Z,8.79
2024-01-11T14:20:22.396Z,8.75
2024-01-11T14:22:50.856Z,8.77
2024-01-11T14:25:21.800Z,8.75
2024-01-11T14:27:49.312Z,8.71
2024-01-11T14:30:16.801Z,8.79
2024-01-11T14:32:46.404Z,8.75
2024-01-11T14:35:15.301Z,8.72
2024-01-11T14:37:44.096Z,8.70
2024-01-11T14:40:14.674Z,8.65
2024-01-11T14:42:43.534Z,8.62
2024-01-11T14:45:11.221Z,8.66
2024-01-11T14:47:38.936Z,8.80
2024-01-11T14:50:11.139Z,8.82
2024-01-11T14:52:42.031Z,8.84
2024-01-11T14:55:11.790Z,8.85
2024-01-11T14:57:40.660Z,8.85
2024-01-11T15:00:09.562Z,8.81
2024-01-11T15:02:37.374Z,8.75
2024-01-11T15:05:05.357Z,8.77
2024-01-11T15:07:33.694Z,8.78
2024-01-11T15:10:01.233Z,8.79
2024-01-11T15:12:28.709Z,8.78
2024-01-11T15:14:56.218Z,8.83
2024-01-11T15:17:23.925Z,8.89
2024-01-11T15:19:52.106Z,8.95
2024-01-11T15:22:19.602Z,8.99
2024-01-11T15:24:54.006Z,8.99
2024-01-11T15:27:23.200Z,8.98
2024-01-11T15:29:54.449Z,8.94
2024-01-11T15:32:23.712Z,8.92
2024-01-11T15:34:54.161Z,8.94
2024-01-11T15:37:24.371Z,8.97
2024-01-11T15:39:52.180Z,9.02
2024-01-11T15:42:20.298Z,9.12
2024-01-11T15:44:47.836Z,9.15
2024-01-11T15:47:15.434Z,9.17
2024-01-11T15:49:43.298Z,9.20
2024-01-11T15:52:12.119Z,9.28
2024-01-11T15:54:39.634Z,9.33
2024-01-11T15:57:08.143Z,9.33
2024-01-11T15:59:36.307Z,9.35
2024-01-11T16:02:07.377Z,9.40
2024-01-11T16:04:35.952Z,9.43
2024-01-11T16:07:04.176Z,9.47
2024-01-11T16:09:32.193Z,9.46
2024-01-11T16:12:03.619Z,9.45
2024-01-11T16:14:33.157Z,9.49
2024-01-11T16:17:02.169Z,9.53
2024-01-11T16:19:32.755Z,9.59
2024-01-11T16:22:01.278Z,9.59
2024-01-11T16:24:32.161Z,9.56
2024-01-11T16:27:01.523Z,9.53
2024-01-11T16:29:32.217Z,9.53
2024-01-11T16:32:03.482Z,9.52
2024-01-11T16:34:34.055Z,9.54
2024-01-11T16:37:04.482Z,9.53
2024-01-11T16:39:35.185Z,9.47
2024-01-11T16:42:05.213Z,9.46
2024-01-11T16:44:35.063Z,9.51
2024-01-11T16:47:05.275Z,9.53
2024-01-11T16:49:34.837Z,9.49
2024-01-11T16:52:05.847Z,9.50
2024-01-11T16:54:36.243Z,9.72
2024-01-11T16:57:06.197Z,9.74
2024-01-11T16:59:37.291Z,9.59
2024-01-11T17:02:07.268Z,9.46
2024-01-11T17:04:37.293Z,9.47
2024-01-11T17:07:08.253Z,9.54
2024-01-11T17:09:39.236Z,9.62
2024-01-11T17:12:09.418Z,9.69
2024-01-11T17:14:39.381Z,9.72
2024-01-11T17:24:46.536Z,9.66
2024-01-11T17:27:15.333Z,9.67
2024-01-11T17:29:42.661Z,9.66
2024-01-11T17:32:09.501Z,9.64
2024-01-11T17:34:36.632Z,9.63
2024-01-11T17:37:03.523Z,9.62
2024-01-11T17:39:30.248Z,9.63
2024-01-11T17:42:00.081Z,9.65
2024-01-11T17:44:28.253Z,9.60
2024-01-11T17:46:54.947Z,9.56
2024-01-11T17:49:21.716Z,9.52
2024-01-11T17:51:48.670Z,9.52
2024-01-11T17:54:16.409Z,9.54
2024-01-11T17:56:43.407Z,9.55
2024-01-11T17:59:10.451Z,9.56
2024-01-11T18:01:37.284Z,9.60
2024-01-11T18:04:04.879Z,9.64
2024-01-11T18:06:32.568Z,9.61
2024-01-11T18:08:59.580Z,9.48
2024-01-11T18:11:26.613Z,9.46
2024-01-11T18:13:55.320Z,9.43
2024-01-11T18:16:23.138Z,9.39
2024-01-11T18:18:50.339Z,9.39
2024-01-11T18:21:17.147Z,9.39
2024-01-11T18:23:44.363Z,9.49
2024-01-11T18:26:11.389Z,9.55
2024-01-11T18:28:38.839Z,9.60
2024-01-11T18:31:06.215Z,9.65
2024-01-11T18:33:33.124Z,9.64
2024-01-11T18:35:59.971Z,9.65
2024-01-11T18:38:27.115Z,9.65
2024-01-11T18:40:54.147Z,9.66
2024-01-11T18:43:20.856Z,9.69
2024-01-11T18:45:50.306Z,9.71
2024-01-11T18:48:19.070Z,9.73
2024-01-11T18:50:46.278Z,9.78
2024-01-11T18:53:13.129Z,9.85
2024-01-11T18:55:40.324Z,9.95
2024-01-11T18:58:07.910Z,10.00
2024-01-11T19:00:35.229Z,10.01
2024-01-11T19:03:02.210Z,10.06
2024-01-11T19:05:30.693Z,10.04
2024-01-11T19:08:00.078Z,10.06
2024-01-11T19:10:26.959Z,10.08
2024-01-11T19:12:54.077Z,10.09
2024-01-11T19:15:20.841Z,10.13
2024-01-11T19:17:48.058Z,10.16
2024-01-11T19:20:17.539Z,10.18
2024-01-11T19:22:44.417Z,10.19
2024-01-11T19:25:11.703Z,10.19
2024-01-11T19:27:38.512Z,10.16
2024-01-11T19:30:08.553Z,10.15
2024-01-11T19:32:35.861Z,10.18
2024-01-11T19:35:02.831Z,10.22
2024-01-11T19:37:32.460Z,10.26
2024-01-11T19:39:59.393Z,10.29
2024-01-11T19:42:26.142Z,10.29
2024-01-11T19:44:53.046Z,10.33
2024-01-11T19:47:19.977Z,10.39
2024-01-11T19:49:46.737Z,10.39
2024-01-11T19:52:13.538Z,10.40
2024-01-11T19:54:40.896Z,10.41
2024-01-11T19:57:07.609Z,10.37
2024-01-11T19:59:34.584Z,10.33
2024-01-11T20:02:02.400Z,10.33
2024-01-11T20:04:32.861Z,10.30
2024-01-11T20:06:59.908Z,10.30
2024-01-11T20:09:26.797Z,10.31
2024-01-11T20:11:53.816Z,10.35
2024-01-11T20:14:20.743Z,10.40
2024-01-11T20:16:47.397Z,10.44
2024-01-11T20:19:14.211Z,10.52
2024-01-11T20:21:41.284Z,10.55
2024-01-11T20:24:08.064Z,10.58
2024-01-11T20:26:35.712Z,10.40
2024-01-11T20:29:02.554Z,9.89
2024-01-11T20:31:32.030Z,9.26
2024-01-11T20:34:02.345Z,8.68
2024-01-11T20:36:29.401Z,8.22
2024-01-11T20:38:56.078Z,7.87
2024-01-11T20:41:24.032Z,7.53
2024-01-11T20:43:50.858Z,7.16
2024-01-11T20:46:21.735Z,6.84
2024-01-11T20:48:48.501Z,6.73
2024-01-11T20:52:55.654Z,5.38
2024-01-11T20:55:23.242Z,6.37
2024-01-11T20:57:50.873Z,6.65
2024-01-11T21:00:20.318Z,6.88
2024-01-11T21:02:48.287Z,6.96
2024-01-11T21:05:16.187Z,6.75
2024-01-11T21:07:43.995Z,6.51
2024-01-11T21:10:11.751Z,6.41
2024-01-11T21:12:39.407Z,6.25
2024-01-11T21:15:08.904Z,6.26
2024-01-11T21:17:37.206Z,6.24
2024-01-11T21:20:06.598Z,6.23
2024-01-11T21:22:34.267Z,6.22
2024-01-11T21:25:02.244Z,6.18
2024-01-11T21:27:29.741Z,6.12
2024-01-11T21:29:57.285Z,6.14
2024-01-11T21:32:24.960Z,6.08
2024-01-11T21:34:52.494Z,6.01
2024-01-11T21:37:20.073Z,5.93
2024-01-11T21:39:47.517Z,5.87
2024-01-11T21:42:15.080Z,5.76
2024-01-11T21:44:42.513Z,5.66
2024-01-11T21:47:10.054Z,5.58
2024-01-11T21:49:37.565Z,5.47
2024-01-11T21:52:05.357Z,5.43
2024-01-11T21:54:35.678Z,5.38
2024-01-11T21:57:03.435Z,5.31
2024-01-11T21:59:31.038Z,5.21
2024-01-11T22:01:58.680Z,5.01
2024-01-11T22:04:26.077Z,4.84
2024-01-11T22:06:53.573Z,4.81
2024-01-11T22:09:21.147Z,4.86
2024-01-11T22:11:48.732Z,4.92
2024-01-11T22:14:16.567Z,4.95
2024-01-11T22:16:44.000Z,4.89
2024-01-11T22:19:11.619Z,4.85
2024-01-11T22:21:40.726Z,4.79
2024-01-11T22:24:08.546Z,4.67
2024-01-11T22:26:36.046Z,4.58
2024-01-11T22:29:04.116Z,4.46
2024-01-11T22:31:38.284Z,4.31
2024-01-11T22:34:05.880Z,4.21
2024-01-11T22:36:33.346Z,4.17
2024-01-11T22:39:00.969Z,4.17
2024-01-11T22:41:30.782Z,4.17
2024-01-11T22:43:58.367Z,4.04
2024-01-11T22:46:25.993Z,3.99
2024-01-11T22:48:53.508Z,4.01
2024-01-11T22:51:21.026Z,3.96
2024-01-11T22:53:48.691Z,3.88
2024-01-11T22:56:16.172Z,3.73
2024-01-11T22:58:43.705Z,3.62
2024-01-11T23:01:11.151Z,3.57
2024-01-11T23:03:38.735Z,3.59
2024-01-11T23:06:06.309Z,3.60
2024-01-11T23:08:33.784Z,3.49
2024-01-11T23:11:04.115Z,3.43
2024-01-11T23:13:31.638Z,3.31
2024-01-11T23:15:59.050Z,3.22
2024-01-11T23:18:26.531Z,3.19
2024-01-11T23:20:54.085Z,3.20
2024-01-11T23:23:21.577Z,3.17
2024-01-11T23:25:49.035Z,3.03
2024-01-11T23:28:16.554Z,2.89
2024-01-11T23:30:44.096Z,2.81
2024-01-11T23:33:12.558Z,2.75
2024-01-11T23:35:40.918Z,2.70
2024-01-11T23:38:08.346Z,2.61
2024-01-11T23:40:35.743Z,2.56
2024-01-11T23:43:03.234Z,2.51
2024-01-11T23:45:30.612Z,2.45
2024-01-11T23:47:59.057Z,2.41
2024-01-11T23:50:26.703Z,2.38
2024-01-11T23:52:54.274Z,2.36
2024-01-11T23:55:21.642Z,2.42
2024-01-11T23:57:49.150Z,2.44
